Time;durP1;ratioP1;P1;durP2;ratioP2;P2;SDS_P1;SDS_P2;PMS_P1;PMS_P2;Temp;Humidity;BMP_temperature;BMP_pressure;BME280_temperature;BME280_humidity;BME280_pressure;Samples;Min_cycle;Max_cycle;Signal;HPM_P1;HPM_P2
2021/06/08 00:04:40;;;;;;;4.77;4.10;;;18.80;81.20;;;;;;10314790;28;20509;-27
2021/06/08 00:10:03;;;;;;;4.07;3.77;;;18.70;81.10;;;;;;10287484;28;20715;-24
2021/06/08 00:15:24;;;;;;;4.67;4.27;;;18.70;81.10;;;;;;10284736;28;20192;-23
2021/06/08 00:20:48;;;;;;;4.80;4.40;;;18.70;81.10;;;;;;10287363;28;20188;-28
2021/06/08 00:26:09;;;;;;;4.37;3.97;;;18.80;81.20;;;;;;10284469;28;20220;-24
2021/06/08 00:31:31;;;;;;;5.23;4.60;;;18.70;81.20;;;;;;10332791;28;20216;-24
2021/06/08 00:36:54;;;;;;;4.50;4.10;;;18.70;81.20;;;;;;10496559;28;20216;-24
2021/06/08 00:42:18;;;;;;;4.63;4.23;;;18.70;81.20;;;;;;10410676;28;20196;-25
2021/06/08 00:47:39;;;;;;;4.30;3.90;;;18.70;81.10;;;;;;10325677;28;20226;-24
2021/06/08 00:53:02;;;;;;;3.77;3.47;;;18.70;81.10;;;;;;10321142;28;20696;-24
2021/06/08 00:58:24;;;;;;;4.77;4.37;;;18.70;81.20;;;;;;10292277;28;20687;-24
2021/06/08 01:03:46;;;;;;;4.30;3.90;;;18.70;81.10;;;;;;10285474;28;20196;-25
2021/06/08 01:09:08;;;;;;;4.10;3.80;;;18.70;81.10;;;;;;10285196;28;20353;-23
2021/06/08 01:14:30;;;;;;;4.53;4.17;;;18.70;81.20;;;;;;10283520;28;20203;-24
2021/06/08 01:19:55;;;;;;;4.00;3.70;;;18.70;81.10;;;;;;10363508;28;20685;-24
2021/06/08 01:25:19;;;;;;;3.80;3.50;;;18.70;81.10;;;;;;10374782;28;20194;-25
2021/06/08 01:30:40;;;;;;;4.27;3.87;;;18.70;81.10;;;;;;10405502;28;20278;-24
2021/06/08 01:36:02;;;;;;;4.37;3.97;;;18.70;81.10;;;;;;10406044;28;20588;-24
2021/06/08 01:41:26;;;;;;;4.70;4.20;;;18.70;81.10;;;;;;10400452;28;20189;-26
2021/06/08 01:46:47;;;;;;;4.40;4.00;;;18.70;81.10;;;;;;10324263;28;20607;-25
2021/06/08 01:52:18;;;;;;;4.33;3.93;;;18.70;81.00;;;;;;10324383;28;20562;-28
2021/06/08 01:57:45;;;;;;;4.37;3.97;;;18.70;81.10;;;;;;10339827;28;20557;-24
2021/06/08 02:03:13;;;;;;;4.40;4.00;;;18.70;81.10;;;;;;10380606;28;20190;-24
2021/06/08 02:08:41;;;;;;;4.67;4.27;;;18.70;81.10;;;;;;10382467;28;20729;-25
2021/06/08 02:14:08;;;;;;;4.63;3.97;;;18.70;81.10;;;;;;10323228;28;20195;-28
2021/06/08 02:19:31;;;;;;;4.40;4.00;;;18.70;81.10;;;;;;10322248;28;20298;-26
2021/06/08 02:24:53;;;;;;;4.43;4.03;;;18.60;81.00;;;;;;10332488;28;20202;-24
2021/06/08 02:30:19;;;;;;;4.40;4.00;;;18.70;81.10;;;;;;10369124;28;20713;-24
2021/06/08 02:35:41;;;;;;;5.63;4.70;;;18.70;81.10;;;;;;10368996;28;20697;-24
2021/06/08 02:41:04;;;;;;;4.13;3.73;;;18.70;81.20;;;;;;10380424;28;20681;-24
2021/06/08 02:46:27;;;;;;;4.53;4.13;;;18.70;81.10;;;;;;10409638;28;20218;-26
2021/06/08 02:51:50;;;;;;;5.10;4.60;;;18.70;81.10;;;;;;10411423;28;20648;-24
2021/06/08 02:57:12;;;;;;;4.47;4.07;;;18.70;81.10;;;;;;10405234;28;20221;-24
2021/06/08 03:02:40;;;;;;;4.93;4.43;;;18.60;81.00;;;;;;10401157;28;20243;-24
2021/06/08 03:08:06;;;;;;;4.77;4.37;;;18.70;81.10;;;;;;10356456;28;20215;-24
2021/06/08 03:13:28;;;;;;;4.70;4.30;;;18.70;81.00;;;;;;10329329;28;20195;-24
2021/06/08 03:18:54;;;;;;;4.43;4.03;;;18.70;81.00;;;;;;10328551;28;20728;-27
2021/06/08 03:24:21;;;;;;;5.10;4.60;;;18.70;81.00;;;;;;10364387;28;20199;-23
2021/06/08 03:29:43;;;;;;;4.50;4.10;;;18.70;81.10;;;;;;10372978;28;20222;-24
2021/06/08 03:35:09;;;;;;;4.70;4.30;;;18.70;81.10;;;;;;10350178;28;21058;-27
2021/06/08 03:40:31;;;;;;;5.13;4.73;;;18.70;81.00;;;;;;10459291;28;20190;-26
2021/06/08 03:45:53;;;;;;;7.00;4.30;;;18.60;81.00;;;;;;10407850;28;20213;-24
2021/06/08 03:51:17;;;;;;;4.90;4.50;;;18.60;81.00;;;;;;10409747;28;20584;-24
2021/06/08 03:56:41;;;;;;;4.97;4.57;;;18.70;81.10;;;;;;10398480;28;20223;-27
2021/06/08 04:02:04;;;;;;;4.90;4.50;;;18.70;81.40;;;;;;10397876;28;20197;-24
2021/06/08 04:07:27;;;;;;;4.93;4.43;;;18.70;81.10;;;;;;10383474;28;20602;-25
2021/06/08 04:12:50;;;;;;;5.07;4.63;;;18.70;81.00;;;;;;10366695;28;20278;-27
2021/06/08 04:18:12;;;;;;;4.80;4.40;;;18.60;80.90;;;;;;10304684;28;20219;-24
2021/06/08 04:23:35;;;;;;;4.90;4.50;;;18.60;80.70;;;;;;10285158;28;20204;-24
2021/06/08 04:28:56;;;;;;;6.03;4.90;;;18.60;80.70;;;;;;10285055;28;20227;-26
2021/06/08 04:34:19;;;;;;;5.53;5.03;;;18.60;80.80;;;;;;10286143;28;20699;-24
2021/06/08 04:39:42;;;;;;;5.53;5.03;;;18.70;81.40;;;;;;10299289;28;20255;-23
2021/06/08 04:45:05;;;;;;;5.13;4.70;;;18.60;80.80;;;;;;10289758;28;20666;-24
2021/06/08 04:50:27;;;;;;;5.30;4.60;;;18.70;80.70;;;;;;10285712;28;20223;-24
2021/06/08 04:55:52;;;;;;;5.20;4.80;;;18.60;80.80;;;;;;10307399;28;20289;-26
2021/06/08 05:01:22;;;;;;;4.53;4.13;;;18.60;80.60;;;;;;10308711;28;20196;-24
2021/06/08 05:06:48;;;;;;;8.43;5.20;;;18.70;80.90;;;;;;10284137;28;20223;-24
2021/06/08 05:12:13;;;;;;;7.27;4.93;;;18.60;81.10;;;;;;10284447;28;20277;-24
2021/06/08 05:17:36;;;;;;;8.77;4.80;;;18.70;81.00;;;;;;10340893;22;20241;-22
2021/06/08 05:22:58;;;;;;;7.93;4.93;;;18.70;81.00;;;;;;10566247;28;20199;-22
2021/06/08 05:28:23;;;;;;;5.73;4.80;;;18.60;80.70;;;;;;10541749;28;20203;-22
2021/06/08 05:33:44;;;;;;;6.43;4.73;;;18.60;80.80;;;;;;10555112;28;20195;-26
2021/06/08 05:39:07;;;;;;;5.57;5.07;;;18.70;80.90;;;;;;10576816;28;20214;-22
2021/06/08 05:44:30;;;;;;;5.27;4.77;;;18.70;81.00;;;;;;10538451;28;20196;-24
2021/06/08 05:49:52;;;;;;;5.60;4.90;;;18.70;80.90;;;;;;10576903;28;20223;-21
2021/06/08 05:55:15;;;;;;;5.13;4.63;;;18.60;80.80;;;;;;10570283;28;20196;-25
2021/06/08 06:00:38;;;;;;;11.07;9.20;;;18.70;80.90;;;;;;10571952;28;20267;-24
2021/06/08 06:06:02;;;;;;;14.10;12.80;;;18.60;81.10;;;;;;10567681;28;20203;-25
2021/06/08 06:11:27;;;;;;;13.73;12.33;;;18.60;82.70;;;;;;10544283;28;20579;-22
2021/06/08 06:16:53;;;;;;;14.77;12.97;;;18.50;82.90;;;;;;10573235;28;20230;-22
2021/06/08 06:22:17;;;;;;;14.17;12.67;;;18.50;83.70;;;;;;10574437;28;20195;-22
2021/06/08 06:27:40;;;;;;;14.40;13.07;;;18.50;84.00;;;;;;10572061;28;20230;-22
2021/06/08 06:33:03;;;;;;;13.80;12.40;;;18.60;83.90;;;;;;10584513;28;20202;-24
2021/06/08 06:38:27;;;;;;;14.03;12.57;;;18.60;83.90;;;;;;10584398;28;20214;-22
2021/06/08 06:43:50;;;;;;;14.07;12.20;;;18.60;84.00;;;;;;10550561;28;20203;-24
2021/06/08 06:49:13;;;;;;;17.13;11.23;;;18.60;83.60;;;;;;10542159;28;20219;-22
2021/06/08 06:54:35;;;;;;;12.73;11.43;;;18.60;83.90;;;;;;10540084;28;20203;-23
2021/06/08 06:59:56;;;;;;;14.47;11.57;;;18.70;84.00;;;;;;10575064;28;20276;-22
2021/06/08 07:05:23;;;;;;;13.60;11.13;;;18.60;85.10;;;;;;10581561;28;20195;-22
2021/06/08 07:10:45;;;;;;;15.27;11.27;;;18.70;84.00;;;;;;10582302;28;20211;-25
2021/06/08 07:16:07;;;;;;;16.00;11.77;;;18.70;84.20;;;;;;10581314;28;20191;-23
2021/06/08 07:21:30;;;;;;;12.93;11.63;;;18.70;84.10;;;;;;10580981;28;20194;-23
2021/06/08 07:26:53;;;;;;;11.43;10.20;;;18.80;83.90;;;;;;10559879;28;20219;-24
2021/06/08 07:32:21;;;;;;;13.00;9.67;;;18.80;83.50;;;;;;10582211;28;20249;-22
2021/06/08 07:37:48;;;;;;;10.17;9.17;;;18.80;83.10;;;;;;10564586;28;20253;-22
2021/06/08 07:43:13;;;;;;;9.67;8.77;;;18.80;83.10;;;;;;10574922;28;20289;-22
2021/06/08 07:48:37;;;;;;;10.00;8.57;;;18.80;83.10;;;;;;10553392;28;20298;-25
2021/06/08 07:54:01;;;;;;;9.30;8.43;;;18.80;82.70;;;;;;10581272;28;20700;-25
2021/06/08 07:59:22;;;;;;;10.30;9.10;;;18.90;82.90;;;;;;10538925;28;20261;-23
2021/06/08 08:04:49;;;;;;;8.33;7.53;;;18.90;82.60;;;;;;10569926;28;20195;-22
2021/06/08 08:10:13;;;;;;;8.70;7.93;;;18.90;82.60;;;;;;10578964;28;20219;-22
2021/06/08 08:15:35;;;;;;;9.87;8.23;;;18.90;82.40;;;;;;10561567;28;20195;-24
2021/06/08 08:20:57;;;;;;;10.97;8.20;;;19.00;82.20;;;;;;10579509;28;20223;-25
2021/06/08 08:26:20;;;;;;;8.90;7.87;;;19.00;81.70;;;;;;10553641;28;20207;-22
2021/06/08 08:31:42;;;;;;;11.93;7.87;;;19.00;81.50;;;;;;10580000;28;20214;-23
2021/06/08 08:37:04;;;;;;;8.10;7.40;;;19.00;81.30;;;;;;10576627;28;20215;-22
2021/06/08 08:42:27;;;;;;;7.80;7.10;;;19.10;82.00;;;;;;10557442;28;20195;-22
2021/06/08 08:47:49;;;;;;;7.53;6.80;;;19.00;81.60;;;;;;10577020;28;20211;-24
2021/06/08 08:53:11;;;;;;;8.57;7.73;;;19.10;81.90;;;;;;10577583;28;20199;-26
2021/06/08 08:58:35;;;;;;;8.30;7.03;;;19.00;82.20;;;;;;10540429;28;20207;-25
2021/06/08 09:03:58;;;;;;;7.63;6.93;;;19.00;82.70;;;;;;10541505;28;20195;-22
2021/06/08 09:09:20;;;;;;;9.37;7.13;;;19.10;82.30;;;;;;10576514;28;20256;-23
2021/06/08 09:14:43;;;;;;;8.13;7.23;;;19.00;82.00;;;;;;10566376;28;20255;-25
2021/06/08 09:20:07;;;;;;;7.60;6.93;;;19.00;81.60;;;;;;10546214;28;20230;-22
2021/06/08 09:25:43;;;;;;;8.07;6.90;;;19.10;81.60;;;;;;10564058;28;20200;-23
2021/06/08 09:31:10;;;;;;;7.33;6.60;;;19.10;81.80;;;;;;10569269;28;20357;-23
2021/06/08 09:36:32;;;;;;;8.93;7.63;;;19.10;81.80;;;;;;10533564;28;20207;-23
2021/06/08 09:41:54;;;;;;;8.57;7.87;;;19.10;82.10;;;;;;10562384;28;20199;-26
2021/06/08 09:47:30;;;;;;;8.13;6.93;;;19.10;82.30;;;;;;10571414;28;20708;-22
2021/06/08 09:52:52;;;;;;;7.37;6.47;;;19.10;82.20;;;;;;10575310;28;20206;-23
2021/06/08 09:58:13;;;;;;;7.23;6.63;;;19.10;82.20;;;;;;10560657;28;20589;-23
2021/06/08 10:03:37;;;;;;;9.57;7.20;;;19.10;82.10;;;;;;10564475;28;20203;-22
2021/06/08 10:09:00;;;;;;;7.47;6.80;;;19.10;82.00;;;;;;10536606;28;20610;-23
2021/06/08 10:14:23;;;;;;;8.17;6.50;;;19.20;81.70;;;;;;10567947;28;20202;-23
2021/06/08 10:19:48;;;;;;;9.13;6.67;;;19.20;81.90;;;;;;10544997;28;20215;-22
2021/06/08 10:25:11;;;;;;;7.23;5.97;;;19.10;81.30;;;;;;10575213;28;20725;-23
2021/06/08 10:30:33;;;;;;;6.43;5.93;;;19.10;81.40;;;;;;10573325;28;20226;-25
2021/06/08 10:35:56;;;;;;;8.53;6.70;;;19.10;81.40;;;;;;10533460;28;20195;-22
2021/06/08 10:41:18;;;;;;;7.70;6.20;;;19.10;81.40;;;;;;10567783;28;20608;-23
2021/06/08 10:46:45;;;;;;;6.13;5.53;;;19.10;81.50;;;;;;10567781;28;20219;-20
2021/06/08 10:52:10;;;;;;;6.40;5.80;;;19.10;81.40;;;;;;10581964;28;20211;-22
2021/06/08 10:57:43;;;;;;;6.63;5.93;;;19.10;81.30;;;;;;10574286;28;20215;-22
2021/06/08 11:03:06;;;;;;;6.80;6.07;;;19.10;80.90;;;;;;10582456;28;20191;-21
2021/06/08 11:09:03;;;;;;;6.30;5.70;;;19.10;80.90;;;;;;10582023;28;20243;-24
2021/06/08 11:14:56;;;;;;;6.00;5.50;;;19.10;80.40;;;;;;10506134;28;20257;-22
2021/06/08 11:20:23;;;;;;;6.57;5.70;;;19.20;80.50;;;;;;10588700;22;20354;-24
2021/06/08 11:25:55;;;;;;;6.00;5.40;;;19.10;80.00;;;;;;10571713;28;20950;-24
2021/06/08 11:31:19;;;;;;;6.97;4.90;;;19.10;80.40;;;;;;10565643;28;20212;-25
2021/06/08 11:36:40;;;;;;;8.17;5.27;;;19.10;80.20;;;;;;10554968;28;20191;-24
2021/06/08 11:42:06;;;;;;;5.37;4.87;;;19.10;79.90;;;;;;10552687;28;20548;-24
2021/06/08 11:47:34;;;;;;;5.30;4.80;;;19.10;79.90;;;;;;10574026;28;20754;-24
2021/06/08 11:53:14;;;;;;;5.50;4.90;;;19.20;79.30;;;;;;10573029;28;20207;-25
2021/06/08 11:58:39;;;;;;;6.23;5.63;;;19.20;78.80;;;;;;10569813;27;20244;-27
2021/06/08 12:04:01;;;;;;;6.67;6.07;;;19.20;79.10;;;;;;10573253;28;20192;-25
2021/06/08 12:09:22;;;;;;;6.63;5.93;;;19.20;78.80;;;;;;10575705;28;20585;-24
2021/06/08 12:14:51;;;;;;;6.53;5.57;;;19.20;78.30;;;;;;10579073;28;20198;-25
2021/06/08 12:20:14;;;;;;;6.60;5.20;;;19.20;78.50;;;;;;10541364;28;20247;-23
2021/06/08 12:25:36;;;;;;;7.43;5.57;;;19.20;78.80;;;;;;10537926;28;20196;-26
2021/06/08 12:31:12;;;;;;;6.07;5.57;;;19.20;79.10;;;;;;10537373;28;20223;-24
2021/06/08 12:36:38;;;;;;;10.07;5.67;;;19.20;79.10;;;;;;10541792;28;20191;-24
2021/06/08 12:42:11;;;;;;;6.17;5.60;;;19.20;79.00;;;;;;10554031;28;20590;-24
2021/06/08 12:47:35;;;;;;;6.97;6.17;;;19.20;79.20;;;;;;10576968;28;20586;-24
2021/06/08 12:52:59;;;;;;;6.63;5.83;;;19.20;79.00;;;;;;10534680;28;20275;-24
2021/06/08 12:58:22;;;;;;;7.33;5.80;;;19.20;78.30;;;;;;10557463;28;20226;-24
2021/06/08 13:03:48;;;;;;;6.20;5.60;;;19.20;78.30;;;;;;10574816;28;20199;-24
2021/06/08 13:09:09;;;;;;;6.07;5.53;;;19.20;78.30;;;;;;10574721;28;20329;-24
2021/06/08 13:14:31;;;;;;;6.03;5.53;;;19.30;78.40;;;;;;10576068;28;20199;-25
2021/06/08 13:19:55;;;;;;;6.53;5.90;;;19.30;78.50;;;;;;10569156;28;20219;-25
2021/06/08 13:25:17;;;;;;;7.13;6.43;;;19.30;78.30;;;;;;10533280;28;20951;-24
2021/06/08 13:30:39;;;;;;;8.20;5.93;;;19.40;77.30;;;;;;10554308;28;20241;-24
2021/06/08 13:36:02;;;;;;;5.63;5.13;;;19.30;78.00;;;;;;10567908;28;20191;-24
2021/06/08 13:41:31;;;;;;;6.53;5.67;;;19.30;78.30;;;;;;10566142;28;20207;-24
2021/06/08 13:46:57;;;;;;;6.00;5.40;;;19.30;78.00;;;;;;10564122;28;20195;-24
2021/06/08 13:52:20;;;;;;;6.10;5.50;;;19.30;78.50;;;;;;10573376;28;20248;-24
2021/06/08 13:57:47;;;;;;;5.53;5.03;;;19.30;77.70;;;;;;10560340;28;20234;-24
2021/06/08 14:03:19;;;;;;;8.17;4.93;;;19.30;77.90;;;;;;10535292;28;20184;-24
2021/06/08 14:08:42;;;;;;;7.73;5.60;;;19.30;77.10;;;;;;10553338;28;20219;-24
2021/06/08 14:14:04;;;;;;;5.97;4.70;;;19.40;76.70;;;;;;10561336;28;20199;-23
2021/06/08 14:19:26;;;;;;;7.57;4.80;;;19.40;77.00;;;;;;10575207;28;20268;-28
2021/06/08 14:24:50;;;;;;;4.67;4.27;;;19.40;77.30;;;;;;10541484;28;20218;-25
2021/06/08 14:30:13;;;;;;;8.23;4.90;;;19.40;77.50;;;;;;10550089;28;20340;-23
2021/06/08 14:35:34;;;;;;;10.03;4.83;;;19.40;77.80;;;;;;10575177;28;20191;-24
2021/06/08 14:40:57;;;;;;;7.67;4.97;;;19.30;78.20;;;;;;10573967;28;20215;-26
2021/06/08 14:46:19;;;;;;;7.20;4.73;;;19.30;78.30;;;;;;10540311;28;20191;-25
2021/06/08 14:51:41;;;;;;;5.63;4.47;;;19.30;78.70;;;;;;10557458;28;20593;-23
2021/06/08 14:57:04;;;;;;;5.60;4.97;;;19.30;78.80;;;;;;10571156;28;20285;-24
2021/06/08 15:02:26;;;;;;;4.87;4.47;;;19.30;79.00;;;;;;10583207;28;20218;-23
2021/06/08 15:07:48;;;;;;;6.50;4.47;;;19.30;79.10;;;;;;10583110;28;20219;-23
2021/06/08 15:13:11;;;;;;;5.73;4.90;;;19.30;78.70;;;;;;10570041;28;20307;-23
2021/06/08 15:18:32;;;;;;;4.97;4.47;;;19.30;78.90;;;;;;10539127;28;20215;-25
2021/06/08 15:23:54;;;;;;;4.67;4.17;;;19.30;79.00;;;;;;10570629;28;20214;-24
2021/06/08 15:29:17;;;;;;;4.80;4.40;;;19.30;79.10;;;;;;10576128;28;20215;-24
2021/06/08 15:34:39;;;;;;;5.03;4.57;;;19.30;78.90;;;;;;10536290;28;20271;-24
2021/06/08 15:40:00;;;;;;;4.97;4.50;;;19.30;79.10;;;;;;10541655;28;20203;-25
2021/06/08 15:45:24;;;;;;;5.27;4.27;;;19.30;78.50;;;;;;10579352;28;20195;-25
2021/06/08 15:50:45;;;;;;;4.87;4.37;;;19.30;78.00;;;;;;10559309;28;20215;-23
2021/06/08 15:56:07;;;;;;;6.57;3.80;;;19.40;78.40;;;;;;10541276;28;20194;-26
2021/06/08 16:01:30;;;;;;;8.83;4.23;;;19.40;78.70;;;;;;10580641;28;20562;-24
2021/06/08 16:06:51;;;;;;;4.50;4.10;;;19.40;78.60;;;;;;10579609;28;20233;-25
2021/06/08 16:12:13;;;;;;;4.90;4.50;;;19.30;78.80;;;;;;10579012;28;20219;-24
2021/06/08 16:17:36;;;;;;;4.00;3.70;;;19.30;78.80;;;;;;10579469;28;20219;-23
2021/06/08 16:22:59;;;;;;;7.17;4.47;;;19.30;78.50;;;;;;10577879;28;20188;-24
2021/06/08 16:28:22;;;;;;;5.63;4.63;;;19.30;79.00;;;;;;10580345;28;20210;-27
2021/06/08 16:33:45;;;;;;;6.10;4.10;;;19.30;79.10;;;;;;10579493;28;20195;-25
2021/06/08 16:39:08;;;;;;;5.63;4.20;;;19.30;79.20;;;;;;10578686;28;20222;-24
2021/06/08 16:44:30;;;;;;;4.23;3.73;;;19.20;79.30;;;;;;10576159;28;20199;-23
2021/06/08 16:49:53;;;;;;;5.57;4.30;;;19.30;79.40;;;;;;10565410;28;20739;-23
2021/06/08 16:55:15;;;;;;;4.53;4.13;;;19.20;79.70;;;;;;10536369;28;20675;-25
2021/06/08 17:00:36;;;;;;;5.13;4.57;;;19.20;79.60;;;;;;10577986;28;20219;-25
2021/06/08 17:06:00;;;;;;;6.77;4.67;;;19.20;79.50;;;;;;10546701;28;20200;-23
2021/06/08 17:11:22;;;;;;;7.70;5.40;;;19.20;79.60;;;;;;10536457;28;20223;-24
2021/06/08 17:16:43;;;;;;;5.90;5.20;;;19.20;79.80;;;;;;10565341;28;20218;-23
2021/06/08 17:22:06;;;;;;;7.70;6.03;;;19.20;80.00;;;;;;10560737;22;20247;-22
2021/06/08 17:27:28;;;;;;;6.17;5.40;;;19.10;80.00;;;;;;10559284;28;20199;-21
2021/06/08 17:32:50;;;;;;;6.87;5.83;;;19.10;80.10;;;;;;10611249;27;20218;-22
2021/06/08 17:38:13;;;;;;;6.53;5.63;;;19.10;80.10;;;;;;10611745;27;20696;-22
2021/06/08 17:43:34;;;;;;;8.93;6.13;;;19.10;80.10;;;;;;10585319;27;20236;-22
2021/06/08 17:48:56;;;;;;;6.87;5.20;;;19.10;80.10;;;;;;10574836;28;20214;-22
2021/06/08 17:54:19;;;;;;;6.33;5.43;;;19.10;80.30;;;;;;10600800;27;20576;-21
2021/06/08 17:59:41;;;;;;;5.90;4.90;;;19.10;80.30;;;;;;10610534;28;20238;-21
2021/06/08 18:05:04;;;;;;;6.57;5.17;;;19.10;80.30;;;;;;10610676;28;20904;-22
2021/06/08 18:10:31;;;;;;;5.30;4.80;;;19.10;80.30;;;;;;10611824;28;20243;-22
2021/06/08 18:15:54;;;;;;;5.63;5.13;;;19.10;80.30;;;;;;10600003;28;20236;-22
2021/06/08 18:21:16;;;;;;;5.20;4.70;;;19.00;80.20;;;;;;10591722;28;20257;-21
2021/06/08 18:26:41;;;;;;;4.77;4.37;;;19.00;80.30;;;;;;10601678;28;20286;-22
2021/06/08 18:32:03;;;;;;;5.77;4.70;;;19.00;80.40;;;;;;10612061;28;20793;-22
2021/06/08 18:37:25;;;;;;;7.07;4.90;;;19.10;80.50;;;;;;10543089;28;20567;-23
2021/06/08 18:42:50;;;;;;;5.07;4.53;;;19.00;80.40;;;;;;10584505;28;20190;-22
2021/06/08 18:48:12;;;;;;;4.80;4.33;;;19.00;80.40;;;;;;10570777;28;20301;-22
2021/06/08 18:53:33;;;;;;;5.20;4.60;;;19.00;81.10;;;;;;10555607;28;20211;-23
2021/06/08 18:58:57;;;;;;;4.30;3.90;;;19.00;80.50;;;;;;10553050;28;20222;-22
2021/06/08 19:04:24;;;;;;;5.07;4.00;;;19.00;80.50;;;;;;10552741;28;20187;-22
2021/06/08 19:09:45;;;;;;;5.80;4.37;;;19.00;80.50;;;;;;10559515;28;20297;-22
2021/06/08 19:15:11;;;;;;;4.77;4.27;;;19.00;80.60;;;;;;10570061;27;20190;-22
2021/06/08 19:20:33;;;;;;;6.17;4.70;;;19.00;80.70;;;;;;10562804;28;20644;-22
2021/06/08 19:25:54;;;;;;;5.87;4.23;;;19.00;80.90;;;;;;10575044;27;20206;-22
2021/06/08 19:31:17;;;;;;;5.23;4.30;;;19.00;80.90;;;;;;10571449;28;20716;-23
2021/06/08 19:36:40;;;;;;;4.13;3.77;;;19.00;80.90;;;;;;10577124;28;20681;-22
2021/06/08 19:42:01;;;;;;;4.37;3.97;;;19.00;81.00;;;;;;10575587;27;20571;-21
2021/06/08 19:47:25;;;;;;;4.70;4.10;;;19.00;81.00;;;;;;10549599;27;20187;-21
2021/06/08 19:52:47;;;;;;;4.30;3.90;;;19.00;81.00;;;;;;10597894;27;20213;-21
2021/06/08 19:58:08;;;;;;;4.03;3.70;;;19.00;81.00;;;;;;10580304;28;20588;-21
2021/06/08 20:03:31;;;;;;;5.47;4.10;;;19.00;81.00;;;;;;10581021;28;20195;-22
2021/06/08 20:08:53;;;;;;;3.97;3.67;;;19.00;81.00;;;;;;10580583;27;20588;-21
2021/06/08 20:14:15;;;;;;;4.17;3.77;;;19.00;81.10;;;;;;10570074;27;20696;-21
2021/06/08 20:19:38;;;;;;;4.63;3.70;;;19.00;81.00;;;;;;10562512;27;20215;-22
2021/06/08 20:24:59;;;;;;;5.67;4.03;;;19.00;81.00;;;;;;10542948;28;20689;-22
2021/06/08 20:30:21;;;;;;;3.97;3.60;;;19.00;81.00;;;;;;10574891;28;20651;-22
2021/06/08 20:35:46;;;;;;;4.13;3.83;;;19.00;80.90;;;;;;10538069;28;20203;-22
2021/06/08 20:41:07;;;;;;;3.47;3.17;;;19.00;80.90;;;;;;10556902;27;20684;-22
2021/06/08 20:46:35;;;;;;;4.03;3.73;;;19.00;80.80;;;;;;10570968;27;20192;-22
2021/06/08 20:51:58;;;;;;;4.00;3.60;;;18.90;80.70;;;;;;10585657;27;20268;-22
2021/06/08 20:57:19;;;;;;;4.33;3.17;;;19.00;80.70;;;;;;10563904;28;20196;-22
2021/06/08 21:02:41;;;;;;;3.23;3.00;;;19.00;80.60;;;;;;10536109;28;20187;-22
2021/06/08 21:08:05;;;;;;;3.37;3.07;;;19.00;80.50;;;;;;10536686;28;20215;-22
2021/06/08 21:13:26;;;;;;;4.53;2.93;;;19.00;80.30;;;;;;10535849;28;20736;-22
2021/06/08 21:18:48;;;;;;;3.13;2.83;;;18.90;80.10;;;;;;10498057;28;20229;-20
2021/06/08 21:24:11;;;;;;;3.13;2.83;;;19.00;79.60;;;;;;10406344;28;20194;-22
2021/06/08 21:29:33;;;;;;;4.67;2.60;;;19.00;79.30;;;;;;10405386;28;20213;-21
2021/06/08 21:34:54;;;;;;;3.97;2.40;;;18.90;78.20;;;;;;10532330;28;20194;-22
2021/06/08 21:40:17;;;;;;;3.90;2.67;;;18.90;77.20;;;;;;10577714;27;20217;-21
2021/06/08 21:45:39;;;;;;;2.57;2.30;;;18.90;77.00;;;;;;10606422;27;20190;-22
2021/06/08 21:51:00;;;;;;;3.17;2.33;;;18.90;76.50;;;;;;10577626;27;20222;-22
2021/06/08 21:56:23;;;;;;;5.70;2.40;;;18.90;76.40;;;;;;10606860;28;20709;-22
2021/06/08 22:01:45;;;;;;;3.10;2.80;;;18.90;76.30;;;;;;10542290;28;20215;-22
2021/06/08 22:07:07;;;;;;;2.70;2.50;;;18.90;76.50;;;;;;10578625;28;20195;-22
2021/06/08 22:12:30;;;;;;;3.30;3.00;;;18.90;76.50;;;;;;10586479;28;20271;-22
2021/06/08 22:17:51;;;;;;;2.90;2.70;;;18.90;76.80;;;;;;10577926;28;20276;-22
2021/06/08 22:23:13;;;;;;;2.67;2.37;;;18.90;76.40;;;;;;10577233;28;20183;-22
2021/06/08 22:28:36;;;;;;;2.83;2.50;;;18.90;76.40;;;;;;10574533;28;20214;-21
2021/06/08 22:33:57;;;;;;;2.40;2.10;;;18.90;75.90;;;;;;10576167;28;20223;-22
2021/06/08 22:39:19;;;;;;;2.43;1.90;;;18.90;75.70;;;;;;10576075;28;20225;-21
2021/06/08 22:44:42;;;;;;;3.40;1.83;;;18.80;74.60;;;;;;10609061;27;20198;-22
2021/06/08 22:50:05;;;;;;;2.17;1.53;;;18.80;74.20;;;;;;10624226;27;20232;-21
2021/06/08 22:55:27;;;;;;;1.40;1.30;;;18.80;73.60;;;;;;10623897;27;20657;-22
2021/06/08 23:00:50;;;;;;;2.03;1.57;;;18.80;73.00;;;;;;10560357;27;20216;-21
2021/06/08 23:06:12;;;;;;;1.50;1.33;;;18.80;72.80;;;;;;10541390;28;20666;-21
2021/06/08 23:11:34;;;;;;;1.57;1.47;;;18.70;72.70;;;;;;10541236;28;20216;-21
2021/06/08 23:16:57;;;;;;;1.50;1.40;;;18.80;72.70;;;;;;10540904;28;20257;-22
2021/06/08 23:22:18;;;;;;;1.40;1.30;;;18.70;73.10;;;;;;10540251;28;20216;-21
2021/06/08 23:27:40;;;;;;;1.40;1.30;;;18.70;72.60;;;;;;10540246;28;20188;-20
2021/06/08 23:33:03;;;;;;;2.43;1.20;;;18.70;72.80;;;;;;10540101;28;20579;-21
2021/06/08 23:38:25;;;;;;;1.20;1.10;;;18.70;72.50;;;;;;10561165;28;20686;-22
2021/06/08 23:43:46;;;;;;;1.23;1.13;;;18.70;72.60;;;;;;10596226;27;20195;-22
2021/06/08 23:49:09;;;;;;;2.07;1.50;;;18.70;72.00;;;;;;10600349;27;20244;-22
2021/06/08 23:54:31;;;;;;;1.60;1.40;;;18.70;72.20;;;;;;10619539;27;20186;-22
2021/06/08 23:59:53;;;;;;;1.30;1.10;;;18.70;72.00;;;;;;10572722;27;20248;-22
